ADDS METAR Data INFO
IDs: Format: Raw Decoded Include TAF

Data at: 1316 UTC 19 Jul 2018

KINW 191256Z AUTO 12005KT 10SM CLR 20/15 A3020 RMK AO2 SLP148 T02000150
KINW 191156Z AUTO 11004KT 10SM CLR 21/14 A3018 RMK AO2 SLP141 T02060144 10239 20206 53006
KINW 191056Z AUTO 00000KT 10SM CLR 22/14 A3017 RMK AO2 SLP137 T02170139
KINW 190956Z AUTO 22009KT 10SM CLR 22/14 A3016 RMK AO2 SLP124 T02220144
KINW 190856Z AUTO 24009KT 10SM CLR 23/14 A3016 RMK AO2 SLP123 T02330144 58009
KINW 190756Z AUTO 21010KT 10SM CLR 23/14 A3018 RMK AO2 SLP130 T02330139
KINW 190656Z AUTO 23008KT 10SM CLR 24/14 A3020 RMK AO2 SLP139 T02390139 403670211
KINW 190556Z AUTO 20012KT 10SM CLR 24/14 A3019 RMK AO2 SLP137 60000 T02390139 10306 20239 51006
KINW 190456Z AUTO 16017KT 10SM CLR 25/15 A3019 RMK AO2 WSHFT 0434 SLP137 T02500150
KINW 190454Z AUTO 15018KT 10SM CLR 25/15 A3019 RMK AO2 WSHFT 0434
KINW 190356Z AUTO 24005KT 10SM SCT100 BKN120 27/14 A3017 RMK AO2 SLP132 T02670139
KINW 190256Z AUTO 11004KT 10SM SCT110 27/13 A3020 RMK AO2 TSE00 SLP142 60000 T02720133 51016
KINW 190235Z AUTO 16010KT 10SM SCT110 27/14 A3020 RMK AO2 LTG DSNT E AND S TSE00 T02720139
KINW 190206Z AUTO 16010KT 10SM VCTS FEW080 OVC120 28/13 A3019 RMK AO2 LTG DSNT E-SW TSE00 T02830133
KINW 190156Z AUTO 12007KT 10SM TS FEW080 BKN110 28/13 A3018 RMK AO2 LTG DSNT E-SW RAB28E38 TSB45 SLP136 P0000 T02780133
KINW 190149Z AUTO 11006KT 10SM TS FEW090 OVC110 28/13 A3018 RMK AO2 LTG DSNT E-SW RAB28E38 TSB45 P0000 T02830133
KINW 190113Z AUTO 31008KT 10SM VCTS FEW120 29/11 A3016 RMK AO2 LTG DSNT ALQDS T02940111
KINW 190056Z AUTO 32010KT 10SM SCT090 30/12 A3017 RMK AO2 LTG DSNT ALQDS SLP130 T03000122
KINW 182356Z AUTO 26012KT 10SM CLR 31/12 A3014 RMK AO2 LTG DSNT N-SE SLP124 60000 T03060122 10367 20283 55004
KINW 182256Z AUTO 25015KT 10SM BKN100 BKN120 29/16 A3014 RMK AO2 PK WND 25030/2213 LTG DSNT S RAB35E51 TSB07E22 SLP124 P0000 T02890156
KINW 182228Z AUTO 27021KT 10SM BKN100 31/13 A3015 RMK AO2 PK WND 25030/2213 LTG DSNT S-NW TSB07E22 T03110133
KINW 182207Z AUTO 26023G28KT 10SM TS FEW100 36/13 A3015 RMK AO2 PK WND 26028/2206 LTG DSNT SE-W TSB07 T03560128
KINW 182156Z AUTO 13005KT 10SM CLR 36/11 A3014 RMK AO2 LTG DSNT S-W SLP114 T03560106
KINW 182056Z AUTO 11006KT 10SM CLR 36/11 A3016 RMK AO2 SLP122 T03560111 58024
KINW 181956Z AUTO 02005KT 10SM CLR 34/12 A3019 RMK AO2 SLP133 T03440117
KINW 181856Z AUTO VRB05KT 10SM CLR 33/12 A3022 RMK AO2 SLP145 T03280117
KINW 181756Z AUTO 01005KT 10SM CLR 32/12 A3024 RMK AO2 SLP153 T03170122 10317 20217 58002
KINW 181656Z AUTO 10SM CLR 30/15 A3025 RMK AO2 SLP159 T03000150
KINW 181556Z AUTO 07003KT 10SM CLR 27/16 A3026 RMK AO2 SLP166 T02720161
KINW 181456Z AUTO 01009KT 10SM CLR 26/16 A3025 RMK AO2 SLP160 T02610156 53013
KINW 181356Z AUTO 31007KT 10SM CLR 25/16 A3022 RMK AO2 SLP149 T02500156
KINW 181256Z AUTO 20010KT 10SM CLR 23/16 A3021 RMK AO2 SLP154 T02280156
KINW 181156Z AUTO 18017KT 10SM CLR 22/15 A3020 RMK AO2 LTG DSNT S AND SW RAE19 SLP155 P0001 60001 70021 T02170150 10233 20211 58004
KINW 181133Z AUTO 17017KT 10SM FEW100 22/16 A3021 RMK AO2 LTG DSNT SE-W RAE19 P0001 T02220156
KINW 181056Z AUTO 14005KT 10SM VCTS -RA FEW085 BKN110 22/17 A3023 RMK AO2 RAB56 SLP153 P0000 T02170167
KINW 180956Z AUTO 03008KT 10SM VCTS SCT080 SCT120 23/16 A3025 RMK AO2 LTG DSNT W-N SLP158 T02280156
KINW 180931Z AUTO 02011G22KT 10SM VCTS OVC080 23/16 A3025 RMK AO2 LTG DSNT W-N T02330161
KINW 180914Z AUTO 10SM BKN090 23/16 A3024 RMK AO2 LTG DSNT W-NE T02280161
KINW 180856Z AUTO 19003KT 10SM VCTS CLR 22/16 A3022 RMK AO2 LTG DSNT W-NE SLP147 T02220161 53006
KINW 180756Z AUTO 20006KT 10SM CLR 22/17 A3021 RMK AO2 LTG DSNT NE SLP143 T02170167
KINW 180656Z AUTO 25008KT 10SM CLR 23/16 A3020 RMK AO2 LTG DSNT W AND NW SLP141 T02280156 403440206
KINW 180556Z AUTO 22009KT 10SM CLR 24/16 A3020 RMK AO2 LTG DSNT W AND NW SLP143 60011 T02390161 10294 20228 51014
KINW 180456Z AUTO 22008KT 10SM CLR 24/17 A3019 RMK AO2 LTG DSNT W-N SLP144 T02390172
KINW 180356Z AUTO 22009KT 10SM CLR 24/17 A3017 RMK AO2 SLP140 T02390172
KINW 180256Z AUTO 24003KT 10SM CLR 26/21 A3015 RMK AO2 SLP130 60011 T02560206 55003
KINW 180156Z AUTO 17004KT 10SM CLR 29/19 A3014 RMK AO2 SLP127 T02890189